Terminal Aerodrome Forecast
Issued by NWS

Home | Current Version | Previous Version | Graphics & Text | Print | Product List | Glossary On
Versions: 1 2 3 4 5 6 7 8 9 10 11 12 13 14 15 16 17 18
000
FTUS43 KMPX 272343
TAFRNH
TAF
KRNH 272343Z 2800/2824 19005KT 5SM BR BKN008 OVC015
     FM280200 18003KT P6SM BKN015 OVC030
     FM280600 00000KT 4SM BR SCT015 SCT120
     FM280800 00000KT 2SM BR SCT004
     FM281000 00000KT 1/2SM FG BKN003
     FM281300 14003KT 4SM BR SCT005 BKN012
     FM281500 14004KT P6SM SCT020 BKN100=

USA.gov is the U.S. government's official web portal to all federal, state and local government web resources and services.